Time;durP1;ratioP1;P1;durP2;ratioP2;P2;SDS_P1;SDS_P2;PMS_P1;PMS_P2;Temp;Humidity;BMP_temperature;BMP_pressure;BME280_temperature;BME280_humidity;BME280_pressure;Samples;Min_cycle;Max_cycle;Signal;HPM_P1;HPM_P2
2020/12/30 00:01:25;;;;;;;8.47;6.50;;;3.90;99.90;;;;;;5034654;28;20176;-56
2020/12/30 00:03:51;;;;;;;8.93;6.70;;;3.90;99.90;;;;;;5035560;28;20229;-57
2020/12/30 00:06:17;;;;;;;7.93;6.60;;;3.90;99.90;;;;;;5036570;28;20181;-54
2020/12/30 00:08:44;;;;;;;8.27;6.70;;;3.90;99.90;;;;;;5042019;28;20203;-51
2020/12/30 00:11:09;;;;;;;7.57;5.93;;;3.90;99.90;;;;;;5028106;28;20189;-57
2020/12/30 00:13:35;;;;;;;7.87;6.20;;;4.00;99.90;;;;;;5035297;28;20218;-58
2020/12/30 00:16:00;;;;;;;8.83;6.87;;;4.00;99.90;;;;;;5023920;28;20176;-52
2020/12/30 00:18:26;;;;;;;9.27;7.23;;;4.00;99.90;;;;;;5032486;28;20203;-56
2020/12/30 00:20:51;;;;;;;8.77;7.43;;;3.90;99.90;;;;;;5032860;28;20270;-56
2020/12/30 00:23:17;;;;;;;9.77;7.57;;;3.90;99.90;;;;;;5029791;28;20215;-55
2020/12/30 00:25:42;;;;;;;9.97;7.90;;;3.80;99.90;;;;;;5042910;28;20645;-53
2020/12/30 00:28:08;;;;;;;8.83;7.23;;;3.70;99.90;;;;;;5039154;28;20254;-58
2020/12/30 00:30:34;;;;;;;8.80;7.90;;;3.50;99.90;;;;;;5035723;28;20517;-53
2020/12/30 00:32:59;;;;;;;9.63;7.67;;;3.40;99.90;;;;;;5038753;28;20682;-56
2020/12/30 00:35:25;;;;;;;7.73;6.93;;;3.40;99.90;;;;;;5028539;28;20337;-52
2020/12/30 00:37:50;;;;;;;8.47;7.37;;;3.40;99.90;;;;;;5032729;28;20223;-54
2020/12/30 00:40:16;;;;;;;9.00;7.37;;;3.50;99.90;;;;;;5030997;28;20212;-56
2020/12/30 00:42:41;;;;;;;9.40;7.53;;;3.50;99.90;;;;;;5033793;28;20215;-56
2020/12/30 00:45:09;;;;;;;10.37;7.53;;;3.50;99.90;;;;;;5019742;28;20233;-53
2020/12/30 00:47:35;;;;;;;8.33;7.13;;;3.60;99.90;;;;;;5030599;28;20226;-58
2020/12/30 00:50:00;;;;;;;9.57;7.47;;;3.60;99.90;;;;;;5040537;28;20434;-58
2020/12/30 00:52:26;;;;;;;9.50;6.73;;;3.60;99.90;;;;;;5027667;28;20288;-55
2020/12/30 00:54:53;;;;;;;9.90;7.50;;;3.70;99.90;;;;;;5039033;28;20184;-54
2020/12/30 00:57:18;;;;;;;8.37;7.37;;;3.70;99.90;;;;;;5039830;28;20176;-58
2020/12/30 00:59:44;;;;;;;10.17;8.10;;;3.70;99.90;;;;;;5036760;28;20220;-53
2020/12/30 01:02:09;;;;;;;10.27;7.80;;;3.70;99.90;;;;;;5024600;28;20203;-58
2020/12/30 01:04:35;;;;;;;12.50;8.30;;;3.60;99.90;;;;;;5038876;28;20215;-57
2020/12/30 01:07:01;;;;;;;11.63;8.67;;;3.50;99.90;;;;;;5045418;28;20761;-55
2020/12/30 01:09:28;;;;;;;11.37;8.53;;;3.50;99.90;;;;;;5020527;28;20220;-56
2020/12/30 01:11:59;;;;;;;9.67;7.63;;;3.60;99.90;;;;;;5013622;28;20211;-54
2020/12/30 01:14:24;;;;;;;9.17;8.10;;;3.60;99.90;;;;;;5013961;28;20199;-57
2020/12/30 01:16:51;;;;;;;9.77;8.40;;;3.60;99.90;;;;;;5030321;28;20431;-53
2020/12/30 01:19:17;;;;;;;10.43;7.87;;;3.60;99.90;;;;;;5016550;28;20231;-53
2020/12/30 01:21:43;;;;;;;10.00;8.27;;;3.60;99.90;;;;;;5032287;28;20426;-54
2020/12/30 01:24:09;;;;;;;9.90;7.97;;;3.70;99.90;;;;;;5024047;28;20832;-53
2020/12/30 01:26:36;;;;;;;10.47;8.63;;;3.70;99.90;;;;;;5003331;28;20577;-53
2020/12/30 01:29:02;;;;;;;10.30;8.30;;;3.70;99.90;;;;;;5033458;28;20243;-55
2020/12/30 01:31:32;;;;;;;10.60;8.23;;;3.70;99.90;;;;;;5034922;28;20229;-56
2020/12/30 01:33:59;;;;;;;10.80;9.17;;;3.70;99.90;;;;;;5030610;28;20191;-49
2020/12/30 01:36:25;;;;;;;15.57;9.27;;;3.70;99.90;;;;;;5023204;28;20184;-56
2020/12/30 01:38:52;;;;;;;11.27;9.10;;;3.70;99.90;;;;;;5023177;28;20254;-55
2020/12/30 01:41:18;;;;;;;12.03;10.00;;;3.70;99.90;;;;;;5039352;28;20636;-56
2020/12/30 01:44:03;;;;;;;11.27;8.87;;;3.70;99.90;;;;;;5036980;28;20519;-57
2020/12/30 01:46:38;;;;;;;9.30;7.27;;;3.60;99.90;;;;;;5038755;28;20172;-54
2020/12/30 01:49:06;;;;;;;9.77;7.33;;;3.60;99.90;;;;;;5035013;28;20462;-57
2020/12/30 01:51:32;;;;;;;10.50;8.77;;;3.60;99.90;;;;;;5033502;28;20628;-52
2020/12/30 01:53:59;;;;;;;13.13;9.07;;;3.60;99.90;;;;;;5029168;28;20433;-51
2020/12/30 01:56:30;;;;;;;12.10;9.20;;;3.60;99.90;;;;;;5021429;28;20779;-52
2020/12/30 01:58:55;;;;;;;12.33;8.83;;;3.70;99.90;;;;;;5022441;28;20454;-51
2020/12/30 02:01:27;;;;;;;11.47;9.10;;;3.70;99.90;;;;;;5028299;28;20422;-52
2020/12/30 02:03:56;;;;;;;10.03;8.40;;;3.80;99.90;;;;;;5026341;28;20230;-56
2020/12/30 02:06:22;;;;;;;11.13;8.57;;;3.80;99.90;;;;;;5019517;28;20176;-53
2020/12/30 02:08:48;;;;;;;11.40;9.10;;;3.80;99.90;;;;;;5028596;28;20958;-57
2020/12/30 02:11:13;;;;;;;12.83;9.37;;;3.80;99.90;;;;;;5032967;28;20182;-56
2020/12/30 02:13:39;;;;;;;11.67;9.63;;;3.80;99.90;;;;;;5029525;28;20207;-55
2020/12/30 02:16:04;;;;;;;11.33;8.37;;;3.90;99.90;;;;;;5017307;28;20653;-56
2020/12/30 02:18:30;;;;;;;12.17;8.80;;;3.90;99.90;;;;;;5038475;28;20250;-57
2020/12/30 02:20:56;;;;;;;11.57;8.67;;;4.00;99.90;;;;;;5030486;28;20523;-55
2020/12/30 02:23:21;;;;;;;11.03;8.00;;;4.00;99.90;;;;;;5020590;28;20547;-52
2020/12/30 02:25:47;;;;;;;10.27;8.30;;;4.10;99.90;;;;;;5031124;28;20235;-54
2020/12/30 02:28:12;;;;;;;9.73;8.43;;;4.10;99.90;;;;;;5018107;28;20205;-55
2020/12/30 02:30:38;;;;;;;9.63;8.10;;;4.10;99.90;;;;;;5025034;28;20551;-54
2020/12/30 02:33:08;;;;;;;10.17;8.40;;;4.10;99.90;;;;;;5031349;28;20269;-52
2020/12/30 02:35:33;;;;;;;10.97;8.47;;;4.10;99.90;;;;;;5036381;28;20188;-51
2020/12/30 02:37:59;;;;;;;9.93;7.80;;;4.10;99.90;;;;;;5036301;28;20453;-58
2020/12/30 02:40:24;;;;;;;10.13;7.53;;;4.10;99.90;;;;;;5036150;28;20216;-52
2020/12/30 02:42:51;;;;;;;11.47;7.93;;;4.10;99.90;;;;;;5038536;28;20508;-56
2020/12/30 02:45:17;;;;;;;10.03;7.07;;;4.10;99.90;;;;;;5024252;28;20268;-52
2020/12/30 02:47:42;;;;;;;11.17;8.17;;;4.10;99.90;;;;;;5020974;28;20299;-56
2020/12/30 02:50:08;;;;;;;9.43;7.30;;;4.10;99.90;;;;;;5016893;28;20302;-54
2020/12/30 02:52:34;;;;;;;9.33;7.10;;;4.10;99.90;;;;;;5033232;28;20244;-56
2020/12/30 02:54:59;;;;;;;7.83;6.67;;;4.10;99.90;;;;;;5030963;28;20542;-54
2020/12/30 02:57:25;;;;;;;8.13;6.70;;;4.10;99.90;;;;;;5032596;28;20659;-51
2020/12/30 02:59:55;;;;;;;9.27;7.17;;;4.10;99.90;;;;;;5037228;28;20536;-56
2020/12/30 03:02:22;;;;;;;8.83;6.20;;;4.10;99.90;;;;;;5032181;28;20180;-53
2020/12/30 03:04:48;;;;;;;8.73;6.60;;;4.10;99.90;;;;;;5039011;28;20266;-58
2020/12/30 03:07:14;;;;;;;7.80;6.40;;;4.10;99.90;;;;;;5036919;28;20447;-57
2020/12/30 03:09:39;;;;;;;7.97;6.40;;;4.10;99.90;;;;;;5028648;28;20675;-57
2020/12/30 03:12:05;;;;;;;6.97;5.90;;;4.10;99.90;;;;;;5021228;28;20274;-54
2020/12/30 03:14:30;;;;;;;8.90;6.93;;;4.10;99.90;;;;;;5017484;28;20197;-56
2020/12/30 03:16:55;;;;;;;9.37;6.43;;;4.00;99.90;;;;;;5036351;28;20184;-56
2020/12/30 03:19:21;;;;;;;7.53;6.37;;;4.00;99.90;;;;;;5026641;28;20257;-55
2020/12/30 03:21:46;;;;;;;9.67;6.67;;;3.80;99.90;;;;;;5038137;28;20207;-51
2020/12/30 03:24:12;;;;;;;7.83;6.33;;;3.50;99.90;;;;;;5032530;28;20207;-52
2020/12/30 03:26:37;;;;;;;7.83;6.23;;;3.60;99.90;;;;;;5037904;28;20190;-54
2020/12/30 03:29:03;;;;;;;8.10;6.37;;;3.60;99.90;;;;;;5035300;28;20211;-56
2020/12/30 03:31:30;;;;;;;8.63;6.47;;;3.70;99.90;;;;;;5036727;28;20270;-53
2020/12/30 03:33:57;;;;;;;8.23;6.30;;;3.80;99.90;;;;;;5035055;28;20624;-52
2020/12/30 03:36:23;;;;;;;7.03;6.10;;;3.80;99.90;;;;;;5018136;28;20411;-56
2020/12/30 03:38:49;;;;;;;9.40;6.40;;;3.80;99.90;;;;;;5032796;28;20224;-55
2020/12/30 03:41:15;;;;;;;6.67;5.67;;;3.90;99.90;;;;;;5040072;28;20194;-55
2020/12/30 03:43:40;;;;;;;7.27;6.43;;;3.90;99.90;;;;;;5040106;28;20266;-53
2020/12/30 03:46:06;;;;;;;8.10;6.73;;;3.90;99.90;;;;;;5025887;28;20185;-57
2020/12/30 03:48:31;;;;;;;7.77;6.17;;;3.90;99.90;;;;;;5036539;28;20262;-52
2020/12/30 03:50:57;;;;;;;7.37;6.37;;;3.80;99.90;;;;;;4998878;28;20200;-51
2020/12/30 03:53:23;;;;;;;8.20;6.70;;;3.80;99.90;;;;;;5021139;28;20214;-57
2020/12/30 03:55:48;;;;;;;8.27;6.60;;;3.80;99.90;;;;;;5029477;28;20175;-57
2020/12/30 03:58:14;;;;;;;7.43;6.20;;;3.70;99.90;;;;;;5033737;28;20299;-54
2020/12/30 04:00:39;;;;;;;6.97;5.80;;;3.70;99.90;;;;;;5031887;28;20187;-50
2020/12/30 04:03:05;;;;;;;6.77;5.50;;;3.70;99.90;;;;;;5039242;28;20659;-57
2020/12/30 04:05:30;;;;;;;6.80;5.17;;;3.60;99.90;;;;;;5023145;28;20197;-52
2020/12/30 04:07:56;;;;;;;7.07;5.70;;;3.60;99.90;;;;;;5034701;28;20207;-52
2020/12/30 04:10:21;;;;;;;7.43;6.30;;;3.50;99.90;;;;;;5035864;28;20614;-55
2020/12/30 04:12:47;;;;;;;6.10;5.50;;;3.50;99.90;;;;;;5031664;28;20199;-55
2020/12/30 04:15:12;;;;;;;7.37;5.77;;;3.50;99.90;;;;;;5035887;28;20204;-55
2020/12/30 04:17:38;;;;;;;9.47;6.70;;;3.40;99.90;;;;;;5027297;28;20184;-55
2020/12/30 04:20:03;;;;;;;7.40;5.87;;;3.10;99.90;;;;;;5030494;28;20545;-55
2020/12/30 04:22:29;;;;;;;8.33;5.87;;;3.10;99.90;;;;;;5037483;28;20211;-56
2020/12/30 04:24:54;;;;;;;9.93;6.50;;;3.10;99.90;;;;;;5033221;28;20658;-54
2020/12/30 04:27:20;;;;;;;7.40;6.00;;;3.00;99.90;;;;;;5022795;28;20678;-52
2020/12/30 04:29:45;;;;;;;7.73;5.97;;;3.00;99.90;;;;;;5038459;28;20212;-54
2020/12/30 04:32:11;;;;;;;6.47;5.63;;;3.00;99.90;;;;;;5033451;28;20672;-51
2020/12/30 04:34:37;;;;;;;7.23;5.87;;;3.00;99.90;;;;;;5037657;28;20210;-53
2020/12/30 04:37:02;;;;;;;6.77;5.63;;;3.00;99.90;;;;;;5036017;28;20179;-57
2020/12/30 04:39:28;;;;;;;6.33;4.80;;;3.00;99.90;;;;;;5014135;28;20705;-51
2020/12/30 04:41:56;;;;;;;5.80;4.90;;;3.00;99.90;;;;;;5023729;28;20203;-49
2020/12/30 04:44:24;;;;;;;6.70;5.00;;;2.90;99.90;;;;;;5027492;28;20184;-50
2020/12/30 04:46:54;;;;;;;6.60;5.30;;;2.90;99.90;;;;;;5019143;28;20813;-58
2020/12/30 04:49:20;;;;;;;5.53;4.77;;;2.90;99.90;;;;;;5034841;28;20782;-48
2020/12/30 04:51:46;;;;;;;6.83;5.30;;;2.90;99.90;;;;;;5015588;28;20466;-55
2020/12/30 04:54:13;;;;;;;5.53;4.80;;;2.90;99.90;;;;;;5016398;28;20423;-58
2020/12/30 04:56:41;;;;;;;5.60;4.60;;;2.90;99.90;;;;;;5028603;28;20530;-50
2020/12/30 04:59:11;;;;;;;6.33;5.00;;;2.80;99.90;;;;;;5017670;28;20449;-57
2020/12/30 05:01:45;;;;;;;7.83;5.23;;;2.80;99.90;;;;;;5031670;28;20516;-54
2020/12/30 05:04:12;;;;;;;5.40;4.60;;;2.80;99.90;;;;;;5038286;28;20457;-52
2020/12/30 05:06:40;;;;;;;5.43;4.87;;;2.80;99.90;;;;;;5032958;28;20511;-56
2020/12/30 05:09:06;;;;;;;5.47;4.80;;;2.70;99.90;;;;;;5016039;28;20526;-57
2020/12/30 05:11:32;;;;;;;7.53;4.83;;;2.60;99.90;;;;;;5016767;28;20419;-55
2020/12/30 05:13:58;;;;;;;5.80;4.70;;;2.60;99.90;;;;;;5034144;28;20879;-56
2020/12/30 05:16:27;;;;;;;5.63;4.93;;;2.70;99.90;;;;;;5030241;28;20907;-49
2020/12/30 05:19:05;;;;;;;6.13;4.67;;;2.70;99.90;;;;;;5033371;28;20269;-54
2020/12/30 05:21:31;;;;;;;6.17;4.60;;;2.60;99.90;;;;;;5035543;28;20422;-58
2020/12/30 05:23:57;;;;;;;5.30;4.63;;;2.60;99.90;;;;;;5007777;28;20497;-56
2020/12/30 05:26:24;;;;;;;6.13;5.07;;;2.60;99.90;;;;;;5036724;28;20430;-56
2020/12/30 05:28:52;;;;;;;6.50;5.67;;;2.40;99.90;;;;;;5027888;28;20447;-56
2020/12/30 05:31:17;;;;;;;8.40;6.03;;;2.50;99.90;;;;;;5018451;28;20415;-51
2020/12/30 05:33:43;;;;;;;8.30;5.50;;;2.40;99.90;;;;;;5029736;28;20450;-55
2020/12/30 05:36:10;;;;;;;7.57;5.80;;;2.50;99.90;;;;;;5033705;28;20171;-51
2020/12/30 05:38:35;;;;;;;6.90;5.60;;;2.50;99.90;;;;;;5027630;28;20247;-53
2020/12/30 05:41:01;;;;;;;7.00;5.10;;;2.50;99.90;;;;;;5030564;28;20422;-56
2020/12/30 05:43:27;;;;;;;7.43;5.43;;;2.50;99.90;;;;;;5027843;28;20247;-52
2020/12/30 05:45:54;;;;;;;7.43;5.40;;;2.50;99.90;;;;;;5018700;28;20280;-54
2020/12/30 05:48:20;;;;;;;6.07;5.43;;;2.50;99.90;;;;;;5020838;28;20227;-50
2020/12/30 05:50:54;;;;;;;6.07;5.40;;;2.50;99.90;;;;;;5013935;28;20427;-55
2020/12/30 05:53:21;;;;;;;5.80;4.90;;;2.50;99.90;;;;;;5023220;28;20528;-51
2020/12/30 05:55:49;;;;;;;9.20;5.67;;;2.40;99.90;;;;;;5027618;28;20446;-54
2020/12/30 05:58:17;;;;;;;12.57;7.03;;;2.40;99.90;;;;;;5037502;28;20538;-56
2020/12/30 06:00:43;;;;;;;25.63;12.60;;;2.40;99.90;;;;;;5034138;28;20509;-57
2020/12/30 06:03:13;;;;;;;21.60;11.87;;;2.40;99.90;;;;;;5039273;28;20420;-52
2020/12/30 06:05:38;;;;;;;26.63;13.57;;;2.40;99.90;;;;;;5015854;28;20427;-53
2020/12/30 06:08:05;;;;;;;24.00;13.13;;;2.40;99.90;;;;;;5027327;28;20459;-52
2020/12/30 06:10:32;;;;;;;20.80;12.40;;;2.40;99.90;;;;;;5030729;28;20248;-56
2020/12/30 06:13:02;;;;;;;20.70;12.67;;;2.40;99.90;;;;;;5019868;28;20466;-57
2020/12/30 06:15:33;;;;;;;15.83;9.70;;;2.40;99.90;;;;;;5032235;28;20920;-55
2020/12/30 06:17:59;;;;;;;9.27;6.53;;;2.40;99.90;;;;;;5040729;28;20442;-54
2020/12/30 06:20:33;;;;;;;7.50;5.53;;;2.30;99.90;;;;;;5015852;28;20500;-51
2020/12/30 06:23:04;;;;;;;5.80;4.53;;;2.30;99.90;;;;;;5036606;28;20856;-49
2020/12/30 06:25:37;;;;;;;4.97;4.30;;;2.20;99.90;;;;;;5037409;28;20430;-53
2020/12/30 06:28:21;;;;;;;7.17;4.70;;;2.20;99.90;;;;;;5037512;28;20437;-56
2020/12/30 06:30:51;;;;;;;5.20;4.53;;;2.10;99.90;;;;;;5032893;28;20442;-54
2020/12/30 06:33:22;;;;;;;6.37;4.80;;;2.20;99.90;;;;;;5037302;28;20494;-56
2020/12/30 06:35:54;;;;;;;6.43;4.70;;;2.20;99.90;;;;;;5035301;28;20429;-53
2020/12/30 06:38:29;;;;;;;5.80;4.80;;;2.10;99.90;;;;;;5035477;28;20541;-48
2020/12/30 06:41:01;;;;;;;5.07;4.20;;;2.10;99.90;;;;;;5029490;28;20505;-51
2020/12/30 06:43:39;;;;;;;6.73;4.60;;;2.00;99.90;;;;;;5036190;28;20496;-49
2020/12/30 06:46:05;;;;;;;7.27;4.70;;;2.00;99.90;;;;;;5035881;28;20423;-53
2020/12/30 06:48:50;;;;;;;5.63;4.47;;;1.90;99.90;;;;;;5039133;28;20458;-56
2020/12/30 06:51:16;;;;;;;6.93;5.00;;;1.90;99.90;;;;;;5037863;28;20442;-53
2020/12/30 06:53:49;;;;;;;5.43;4.80;;;2.00;99.90;;;;;;5037526;28;20462;-55
2020/12/30 06:56:15;;;;;;;5.53;4.73;;;2.00;99.90;;;;;;5037719;28;20921;-50
2020/12/30 06:58:50;;;;;;;6.43;5.03;;;1.90;99.90;;;;;;5036412;28;20454;-53
2020/12/30 07:01:22;;;;;;;6.13;4.90;;;1.90;99.90;;;;;;5039534;28;20648;-55
2020/12/30 07:03:49;;;;;;;6.70;5.07;;;1.90;99.90;;;;;;5036043;28;20798;-56
2020/12/30 07:06:25;;;;;;;5.53;4.53;;;1.90;99.90;;;;;;5039928;28;20527;-52
2020/12/30 07:08:52;;;;;;;5.37;4.67;;;1.90;99.90;;;;;;5034590;28;20496;-55
2020/12/30 07:11:41;;;;;;;5.90;4.60;;;1.90;99.90;;;;;;5039022;28;20778;-50
2020/12/30 07:14:15;;;;;;;5.50;4.90;;;2.00;99.90;;;;;;5034554;28;20507;-52
2020/12/30 07:16:45;;;;;;;5.93;4.63;;;2.00;99.90;;;;;;5018242;28;20420;-49
2020/12/30 07:19:19;;;;;;;5.93;4.77;;;2.00;99.90;;;;;;5038991;28;20771;-55
2020/12/30 07:22:07;;;;;;;5.93;4.67;;;2.00;99.90;;;;;;5036654;28;20414;-57
2020/12/30 07:24:51;;;;;;;5.83;4.37;;;2.00;99.90;;;;;;5033987;28;20442;-52
2020/12/30 07:27:16;;;;;;;6.07;4.37;;;2.00;99.90;;;;;;5037251;28;20417;-53
2020/12/30 07:29:43;;;;;;;5.73;4.40;;;2.00;99.90;;;;;;5036500;28;20430;-49
2020/12/30 07:32:10;;;;;;;5.40;4.47;;;2.10;99.90;;;;;;5035618;28;20235;-54
2020/12/30 07:34:43;;;;;;;7.70;5.23;;;1.90;99.90;;;;;;5035621;28;20426;-55
2020/12/30 07:37:10;;;;;;;5.83;4.50;;;1.80;99.90;;;;;;5039424;28;20409;-58
2020/12/30 07:39:38;;;;;;;7.17;4.50;;;1.70;99.90;;;;;;5038814;28;20492;-54
2020/12/30 07:42:05;;;;;;;6.20;5.17;;;1.70;99.90;;;;;;5037169;28;20473;-56
2020/12/30 07:44:31;;;;;;;6.47;4.80;;;1.80;99.90;;;;;;5035822;28;20457;-50
2020/12/30 07:47:06;;;;;;;5.43;4.63;;;1.80;99.90;;;;;;5035765;28;20462;-56
2020/12/30 07:49:32;;;;;;;6.33;4.90;;;1.90;99.90;;;;;;5036493;28;20195;-57
2020/12/30 07:52:02;;;;;;;7.60;5.00;;;2.00;99.90;;;;;;5034591;28;20953;-56
2020/12/30 07:54:28;;;;;;;6.33;5.37;;;2.00;99.90;;;;;;5035526;28;20414;-52
2020/12/30 07:57:04;;;;;;;5.60;4.90;;;2.00;99.90;;;;;;5036448;28;20920;-50
2020/12/30 07:59:31;;;;;;;6.57;5.30;;;2.10;99.90;;;;;;5037913;28;20466;-55
2020/12/30 08:01:59;;;;;;;8.77;6.10;;;2.20;99.90;;;;;;5038404;28;20418;-54
2020/12/30 08:04:26;;;;;;;6.63;5.53;;;2.30;99.90;;;;;;5034143;28;20825;-51
2020/12/30 08:06:52;;;;;;;7.17;5.67;;;2.40;99.90;;;;;;5037139;28;20421;-56
2020/12/30 08:09:18;;;;;;;6.93;6.00;;;2.60;99.90;;;;;;5035403;28;20521;-52
2020/12/30 08:11:52;;;;;;;6.53;5.43;;;2.70;99.90;;;;;;5038976;28;20636;-51
2020/12/30 08:14:19;;;;;;;9.10;5.17;;;2.90;99.90;;;;;;5035835;28;20195;-53
2020/12/30 08:16:52;;;;;;;5.90;4.20;;;3.20;99.90;;;;;;5036900;28;20410;-59
2020/12/30 08:19:31;;;;;;;4.37;3.97;;;3.40;99.90;;;;;;5035072;28;20433;-52
2020/12/30 08:22:29;;;;;;;5.63;4.17;;;3.70;99.90;;;;;;5037627;28;20438;-55
2020/12/30 08:24:56;;;;;;;3.90;3.13;;;4.30;99.90;;;;;;4956203;29;20197;-59
2020/12/30 08:27:23;;;;;;;4.60;3.60;;;5.20;99.90;;;;;;4955997;28;20185;-56
2020/12/30 08:29:49;;;;;;;4.03;3.60;;;6.70;99.90;;;;;;4955391;29;20193;-54
2020/12/30 08:32:34;;;;;;;4.77;3.63;;;8.20;99.90;;;;;;4956551;29;20663;-56
2020/12/30 08:35:14;;;;;;;6.53;3.83;;;9.60;99.90;;;;;;4955263;29;20241;-55
2020/12/30 08:37:44;;;;;;;5.47;3.80;;;10.60;99.90;;;;;;4956709;29;20178;-53
2020/12/30 08:40:23;;;;;;;4.87;4.00;;;11.30;98.50;;;;;;4958141;29;20163;-52
2020/12/30 08:43:12;;;;;;;4.90;4.10;;;11.70;97.40;;;;;;4957520;28;20193;-54
2020/12/30 08:45:49;;;;;;;3.93;3.40;;;12.10;96.90;;;;;;4954691;29;20186;-51
2020/12/30 08:48:19;;;;;;;4.17;3.70;;;12.80;96.40;;;;;;4955311;29;20252;-55
2020/12/30 08:50:46;;;;;;;4.47;3.70;;;13.40;95.00;;;;;;4956571;29;20206;-50
2020/12/30 08:53:12;;;;;;;4.80;3.57;;;14.20;93.60;;;;;;4956058;29;20540;-53
2020/12/30 08:55:38;;;;;;;4.10;3.63;;;14.80;92.60;;;;;;4954208;29;20247;-57
2020/12/30 08:58:04;;;;;;;4.03;3.63;;;15.50;91.40;;;;;;4953951;28;20213;-57
2020/12/30 09:00:35;;;;;;;4.43;4.00;;;15.90;89.30;;;;;;4969815;28;20188;-53
2020/12/30 09:03:14;;;;;;;4.63;4.10;;;16.40;87.50;;;;;;5034146;28;20190;-55
2020/12/30 09:05:41;;;;;;;4.53;3.87;;;17.50;85.10;;;;;;5032827;28;20567;-56
2020/12/30 09:08:14;;;;;;;4.80;4.17;;;18.90;81.30;;;;;;5033514;28;20200;-58
2020/12/30 09:10:40;;;;;;;5.23;4.20;;;20.90;76.10;;;;;;5025663;28;20183;-57
2020/12/30 09:13:22;;;;;;;4.45;3.92;;;22.20;69.40;;;;;;5033530;28;20199;-57
2020/12/30 09:15:54;;;;;;;4.32;3.72;;;22.90;64.50;;;;;;5034634;28;20252;-55
2020/12/30 09:18:21;;;;;;;4.22;3.80;;;22.80;62.10;;;;;;5033253;28;20211;-56
2020/12/30 09:20:47;;;;;;;4.43;3.88;;;23.10;60.10;;;;;;5031800;28;20203;-53
2020/12/30 09:23:13;;;;;;;4.70;3.90;;;24.10;59.00;;;;;;5033104;28;20569;-55
2020/12/30 09:25:40;;;;;;;5.13;4.50;;;25.50;56.70;;;;;;5033981;28;20203;-58
2020/12/30 09:28:16;;;;;;;5.00;4.50;;;27.00;52.90;;;;;;5034154;28;20575;-56
2020/12/30 09:30:42;;;;;;;4.65;3.90;;;28.40;49.80;;;;;;5032974;28;20224;-55
2020/12/30 09:33:24;;;;;;;5.68;4.57;;;29.70;47.80;;;;;;5034772;28;20682;-53
2020/12/30 09:35:50;;;;;;;5.25;4.43;;;30.90;44.50;;;;;;5033345;28;20605;-59
2020/12/30 09:38:25;;;;;;;4.50;4.10;;;31.90;42.80;;;;;;5033837;28;20200;-57
2020/12/30 09:40:55;;;;;;;4.43;4.03;;;32.70;40.70;;;;;;5034334;28;20174;-58
2020/12/30 09:43:25;;;;;;;4.45;4.05;;;33.40;39.10;;;;;;5034687;28;20267;-59
2020/12/30 09:46:00;;;;;;;5.00;4.50;;;34.00;38.10;;;;;;5038341;28;20196;-57
2020/12/30 09:48:26;;;;;;;4.93;4.15;;;34.60;36.70;;;;;;5037681;28;20230;-59
2020/12/30 09:50:53;;;;;;;4.55;4.15;;;35.20;35.90;;;;;;5037084;28;20172;-57
2020/12/30 09:53:19;;;;;;;4.28;3.88;;;35.60;34.90;;;;;;5032979;28;20196;-59
2020/12/30 09:55:50;;;;;;;4.50;4.10;;;36.10;33.90;;;;;;5054487;28;20228;-57
2020/12/30 09:58:16;;;;;;;4.45;3.60;;;36.40;33.30;;;;;;5057804;28;20222;-59
2020/12/30 10:00:42;;;;;;;6.28;5.45;;;36.70;32.30;;;;;;5057647;28;20180;-56
2020/12/30 10:03:08;;;;;;;5.40;4.93;;;36.50;30.00;;;;;;5037766;28;20204;-55
2020/12/30 10:05:33;;;;;;;5.13;4.72;;;36.20;30.70;;;;;;5038001;28;20613;-59
2020/12/30 10:07:59;;;;;;;5.15;4.70;;;35.30;30.70;;;;;;5049755;28;20219;-57
2020/12/30 10:10:25;;;;;;;5.97;5.38;;;34.60;31.30;;;;;;5057360;28;20175;-56
2020/12/30 10:12:51;;;;;;;21.67;6.43;;;34.00;30.90;;;;;;5057398;28;20181;-59
2020/12/30 10:15:19;;;;;;;5.60;5.10;;;30.60;32.00;;;;;;5058631;28;20654;-58
2020/12/30 10:17:46;;;;;;;4.93;4.50;;;29.00;35.30;;;;;;5056075;28;20294;-58
2020/12/30 10:20:12;;;;;;;18.13;5.78;;;28.80;36.20;;;;;;5057442;28;20198;-53
2020/12/30 10:22:39;;;;;;;5.15;4.75;;;28.50;35.10;;;;;;5055464;28;20598;-57
2020/12/30 10:25:06;;;;;;;8.43;5.70;;;26.90;37.40;;;;;;5056532;28;20171;-57
2020/12/30 10:27:32;;;;;;;9.13;5.68;;;26.20;37.60;;;;;;5059037;28;20180;-59
2020/12/30 10:29:57;;;;;;;8.18;5.57;;;25.20;39.40;;;;;;5037586;28;20218;-59
2020/12/30 10:32:23;;;;;;;12.10;6.07;;;25.90;39.70;;;;;;5037847;28;20183;-58
2020/12/30 10:34:48;;;;;;;5.53;5.00;;;25.40;38.90;;;;;;5036947;28;20274;-59
2020/12/30 10:37:16;;;;;;;6.55;5.85;;;25.50;40.50;;;;;;5039870;28;20211;-57
2020/12/30 10:39:43;;;;;;;5.70;5.20;;;23.70;40.50;;;;;;5034379;28;20283;-56
2020/12/30 10:42:09;;;;;;;5.37;4.87;;;22.40;42.80;;;;;;5032007;28;20573;-57
2020/12/30 10:44:34;;;;;;;6.20;5.60;;;21.20;44.30;;;;;;5042273;28;20204;-59
2020/12/30 10:47:00;;;;;;;5.50;5.00;;;21.00;45.30;;;;;;5038121;28;20232;-56
2020/12/30 10:49:26;;;;;;;5.15;4.72;;;21.50;46.20;;;;;;5038148;28;20200;-55
2020/12/30 10:51:51;;;;;;;5.65;5.15;;;22.40;44.40;;;;;;5039103;28;20630;-54
2020/12/30 10:54:17;;;;;;;5.15;4.65;;;23.10;43.90;;;;;;5036605;28;20180;-55
2020/12/30 10:57:01;;;;;;;5.40;4.90;;;24.20;43.90;;;;;;5037007;28;20176;-58
2020/12/30 10:59:26;;;;;;;4.70;4.30;;;25.60;42.00;;;;;;5035632;28;20238;-53
2020/12/30 11:01:53;;;;;;;4.50;4.10;;;26.50;41.20;;;;;;5040149;28;20569;-58
2020/12/30 11:04:19;;;;;;;4.60;4.20;;;27.30;41.20;;;;;;5041106;28;20227;-58
2020/12/30 11:06:45;;;;;;;5.30;4.80;;;28.80;40.70;;;;;;5019094;28;20632;-58
2020/12/30 11:09:11;;;;;;;4.57;4.18;;;30.30;38.60;;;;;;5036117;28;20203;-58
2020/12/30 11:11:37;;;;;;;5.05;4.47;;;31.90;37.30;;;;;;5037148;28;20175;-58
2020/12/30 11:14:03;;;;;;;6.40;4.28;;;33.50;35.40;;;;;;5035396;28;20246;-59
2020/12/30 11:16:28;;;;;;;5.80;5.22;;;34.30;34.30;;;;;;5035552;28;20184;-60
2020/12/30 11:18:54;;;;;;;5.00;4.60;;;34.80;32.20;;;;;;5040448;28;20195;-59
2020/12/30 11:21:19;;;;;;;3.92;3.55;;;34.60;31.70;;;;;;5039214;28;20172;-58
2020/12/30 11:23:45;;;;;;;4.40;4.00;;;34.60;32.40;;;;;;5036582;28;20284;-59
2020/12/30 11:26:11;;;;;;;23.98;21.98;;;35.20;32.60;;;;;;5034406;28;20640;-54
2020/12/30 11:28:36;;;;;;;6.40;5.80;;;35.80;31.00;;;;;;5041839;28;20239;-58
2020/12/30 11:31:03;;;;;;;15.68;14.32;;;35.80;31.80;;;;;;5033717;28;20179;-58
2020/12/30 11:33:28;;;;;;;10.32;9.52;;;35.90;30.80;;;;;;5033365;28;20231;-59
2020/12/30 11:35:54;;;;;;;4.13;3.83;;;35.90;31.70;;;;;;5035294;28;20606;-60
2020/12/30 11:38:19;;;;;;;4.38;3.97;;;36.10;31.20;;;;;;5032840;28;20214;-58
2020/12/30 11:40:45;;;;;;;5.00;4.50;;;36.10;30.70;;;;;;5039495;28;20180;-59
2020/12/30 11:43:11;;;;;;;4.38;3.97;;;36.00;30.50;;;;;;5046096;28;20214;-54
2020/12/30 11:45:36;;;;;;;3.60;3.30;;;35.90;30.20;;;;;;5038880;28;20274;-58
2020/12/30 11:48:02;;;;;;;3.90;3.60;;;36.00;30.50;;;;;;5035090;28;20229;-60
2020/12/30 11:50:29;;;;;;;4.20;3.80;;;36.10;30.90;;;;;;5032462;28;20196;-59
2020/12/30 11:52:56;;;;;;;4.18;3.70;;;36.40;30.90;;;;;;5034796;28;20689;-57
2020/12/30 11:55:22;;;;;;;3.97;3.53;;;36.60;30.50;;;;;;5041908;28;20228;-60
2020/12/30 11:57:47;;;;;;;4.32;3.92;;;36.70;30.00;;;;;;5055726;28;20199;-59
2020/12/30 12:00:13;;;;;;;4.25;3.90;;;36.10;30.10;;;;;;5049683;28;20243;-60
2020/12/30 12:02:38;;;;;;;4.35;3.95;;;35.30;30.40;;;;;;5055784;28;20241;-57
2020/12/30 12:05:09;;;;;;;3.90;3.60;;;35.00;32.30;;;;;;5051249;28;20317;-58
2020/12/30 12:07:34;;;;;;;4.63;4.22;;;35.10;31.50;;;;;;5052566;28;20171;-58
2020/12/30 12:10:00;;;;;;;4.10;3.70;;;35.20;30.70;;;;;;5053477;28;20182;-57
2020/12/30 12:12:25;;;;;;;4.55;4.18;;;35.30;30.90;;;;;;5041944;28;20196;-60
2020/12/30 12:14:51;;;;;;;4.90;4.50;;;35.20;31.00;;;;;;5056218;28;20179;-60
2020/12/30 12:17:16;;;;;;;5.00;4.60;;;34.80;31.00;;;;;;5051810;28;20198;-58
2020/12/30 12:19:42;;;;;;;5.38;4.88;;;34.40;31.30;;;;;;5055901;28;20290;-60
2020/12/30 12:22:08;;;;;;;5.30;4.88;;;33.60;31.00;;;;;;5048620;28;20226;-60
2020/12/30 12:24:36;;;;;;;5.50;5.00;;;32.00;32.60;;;;;;5035567;28;20259;-58
2020/12/30 12:27:02;;;;;;;5.65;5.15;;;31.60;34.10;;;;;;5016982;28;20300;-58
2020/12/30 12:29:34;;;;;;;6.00;5.43;;;31.20;34.50;;;;;;5034760;28;20207;-58
2020/12/30 12:32:10;;;;;;;6.43;5.82;;;30.60;34.60;;;;;;5035667;28;20640;-58
2020/12/30 12:34:38;;;;;;;6.40;5.80;;;29.70;35.50;;;;;;5034806;28;20191;-60
2020/12/30 12:37:05;;;;;;;6.85;6.25;;;29.10;36.70;;;;;;5035816;28;20176;-58
2020/12/30 12:39:32;;;;;;;5.63;5.13;;;28.10;37.50;;;;;;5032500;28;20493;-59
2020/12/30 12:41:57;;;;;;;6.00;5.40;;;28.30;37.80;;;;;;5034684;28;20184;-60
2020/12/30 12:44:23;;;;;;;7.05;6.40;;;28.80;37.30;;;;;;5035870;28;20262;-56
2020/12/30 12:46:50;;;;;;;5.70;5.20;;;29.30;36.80;;;;;;5033354;28;20221;-60
2020/12/30 12:49:15;;;;;;;6.10;5.50;;;29.60;36.60;;;;;;5034236;28;20607;-54
2020/12/30 12:51:55;;;;;;;6.00;5.40;;;30.00;36.20;;;;;;5037368;28;20667;-57
2020/12/30 12:54:21;;;;;;;5.90;5.30;;;29.70;36.10;;;;;;5035184;28;20172;-58